sensor_id;sensor_type;location;lat;lon;timestamp;P1;durP1;ratioP1;P2;durP2;ratioP2
77402;SDS011;66472;53.046;8.656;2023-03-14T00:02:08;8.33;;;7.40;;
77402;SDS011;66472;53.046;8.656;2023-03-14T00:07:03;7.97;;;7.03;;
77402;SDS011;66472;53.046;8.656;2023-03-14T00:11:58;10.87;;;8.17;;
77402;SDS011;66472;53.046;8.656;2023-03-14T00:16:54;12.67;;;8.33;;
77402;SDS011;66472;53.046;8.656;2023-03-14T00:21:49;8.30;;;6.67;;
77402;SDS011;66472;53.046;8.656;2023-03-14T00:26:44;9.23;;;7.30;;
77402;SDS011;66472;53.046;8.656;2023-03-14T00:31:39;10.30;;;7.10;;
77402;SDS011;66472;53.046;8.656;2023-03-14T00:36:37;8.60;;;7.60;;
77402;SDS011;66472;53.046;8.656;2023-03-14T00:41:33;7.37;;;6.40;;
77402;SDS011;66472;53.046;8.656;2023-03-14T00:46:29;10.53;;;7.07;;
77402;SDS011;66472;53.046;8.656;2023-03-14T00:51:24;7.77;;;7.03;;
77402;SDS011;66472;53.046;8.656;2023-03-14T00:56:19;8.67;;;7.83;;
77402;SDS011;66472;53.046;8.656;2023-03-14T01:01:17;12.05;;;7.82;;
77402;SDS011;66472;53.046;8.656;2023-03-14T01:06:17;8.83;;;8.03;;
77402;SDS011;66472;53.046;8.656;2023-03-14T01:11:14;12.57;;;11.17;;
77402;SDS011;66472;53.046;8.656;2023-03-14T01:16:10;11.77;;;10.63;;
77402;SDS011;66472;53.046;8.656;2023-03-14T01:21:10;13.67;;;12.33;;
77402;SDS011;66472;53.046;8.656;2023-03-14T01:26:08;14.43;;;12.73;;
77402;SDS011;66472;53.046;8.656;2023-03-14T01:31:07;13.13;;;11.90;;
77402;SDS011;66472;53.046;8.656;2023-03-14T01:36:03;15.00;;;13.73;;
77402;SDS011;66472;53.046;8.656;2023-03-14T01:40:58;14.47;;;13.07;;
77402;SDS011;66472;53.046;8.656;2023-03-14T01:51:04;13.27;;;11.20;;
77402;SDS011;66472;53.046;8.656;2023-03-14T01:56:02;10.97;;;9.93;;
77402;SDS011;66472;53.046;8.656;2023-03-14T02:00:59;11.13;;;10.13;;
77402;SDS011;66472;53.046;8.656;2023-03-14T02:05:55;10.93;;;9.63;;
77402;SDS011;66472;53.046;8.656;2023-03-14T02:10:52;13.90;;;10.97;;
77402;SDS011;66472;53.046;8.656;2023-03-14T02:15:59;12.10;;;11.20;;
77402;SDS011;66472;53.046;8.656;2023-03-14T02:21:34;15.60;;;12.03;;
77402;SDS011;66472;53.046;8.656;2023-03-14T02:26:39;12.87;;;11.70;;
77402;SDS011;66472;53.046;8.656;2023-03-14T02:31:35;13.20;;;11.97;;
77402;SDS011;66472;53.046;8.656;2023-03-14T02:36:31;11.60;;;10.40;;
77402;SDS011;66472;53.046;8.656;2023-03-14T02:41:26;10.93;;;10.03;;
77402;SDS011;66472;53.046;8.656;2023-03-14T02:46:29;11.70;;;10.70;;
77402;SDS011;66472;53.046;8.656;2023-03-14T02:51:25;11.07;;;10.00;;
77402;SDS011;66472;53.046;8.656;2023-03-14T02:56:21;15.67;;;10.03;;
77402;SDS011;66472;53.046;8.656;2023-03-14T03:01:16;11.90;;;10.93;;
77402;SDS011;66472;53.046;8.656;2023-03-14T03:06:12;14.70;;;10.40;;
77402;SDS011;66472;53.046;8.656;2023-03-14T03:11:07;10.13;;;9.33;;
77402;SDS011;66472;53.046;8.656;2023-03-14T03:16:04;9.67;;;8.73;;
77402;SDS011;66472;53.046;8.656;2023-03-14T03:21:00;9.43;;;8.63;;
77402;SDS011;66472;53.046;8.656;2023-03-14T03:25:55;8.67;;;7.97;;
77402;SDS011;66472;53.046;8.656;2023-03-14T03:30:50;8.50;;;7.72;;
77402;SDS011;66472;53.046;8.656;2023-03-14T03:35:47;9.13;;;7.63;;
77402;SDS011;66472;53.046;8.656;2023-03-14T03:40:47;8.90;;;8.20;;
77402;SDS011;66472;53.046;8.656;2023-03-14T03:45:43;8.20;;;7.47;;
77402;SDS011;66472;53.046;8.656;2023-03-14T03:50:43;8.93;;;8.13;;
77402;SDS011;66472;53.046;8.656;2023-03-14T03:55:40;9.70;;;8.77;;
77402;SDS011;66472;53.046;8.656;2023-03-14T04:00:36;10.80;;;9.67;;
77402;SDS011;66472;53.046;8.656;2023-03-14T04:05:32;10.67;;;9.53;;
77402;SDS011;66472;53.046;8.656;2023-03-14T04:10:35;10.33;;;9.37;;
77402;SDS011;66472;53.046;8.656;2023-03-14T04:15:38;8.50;;;7.70;;
77402;SDS011;66472;53.046;8.656;2023-03-14T04:20:40;8.73;;;7.90;;
77402;SDS011;66472;53.046;8.656;2023-03-14T04:25:36;9.13;;;8.23;;
77402;SDS011;66472;53.046;8.656;2023-03-14T04:30:33;12.73;;;7.60;;
77402;SDS011;66472;53.046;8.656;2023-03-14T04:35:38;8.80;;;8.00;;
77402;SDS011;66472;53.046;8.656;2023-03-14T04:40:39;7.50;;;7.10;;
77402;SDS011;66472;53.046;8.656;2023-03-14T04:45:37;8.73;;;7.97;;
77402;SDS011;66472;53.046;8.656;2023-03-14T04:50:35;9.57;;;8.57;;
77402;SDS011;66472;53.046;8.656;2023-03-14T04:55:31;10.03;;;9.30;;
77402;SDS011;66472;53.046;8.656;2023-03-14T05:00:27;8.50;;;7.23;;
77402;SDS011;66472;53.046;8.656;2023-03-14T05:05:33;6.97;;;6.47;;
77402;SDS011;66472;53.046;8.656;2023-03-14T05:10:40;7.33;;;6.87;;
77402;SDS011;66472;53.046;8.656;2023-03-14T05:15:41;10.80;;;6.50;;
77402;SDS011;66472;53.046;8.656;2023-03-14T05:20:43;7.83;;;6.50;;
77402;SDS011;66472;53.046;8.656;2023-03-14T05:25:50;10.10;;;8.20;;
77402;SDS011;66472;53.046;8.656;2023-03-14T05:30:54;6.80;;;6.10;;
77402;SDS011;66472;53.046;8.656;2023-03-14T05:36:22;6.40;;;5.77;;
77402;SDS011;66472;53.046;8.656;2023-03-14T05:41:30;5.87;;;5.47;;
77402;SDS011;66472;53.046;8.656;2023-03-14T05:46:44;8.07;;;7.47;;
77402;SDS011;66472;53.046;8.656;2023-03-14T05:51:53;6.77;;;5.80;;
77402;SDS011;66472;53.046;8.656;2023-03-14T05:57:07;7.20;;;6.43;;
77402;SDS011;66472;53.046;8.656;2023-03-14T06:02:21;7.63;;;6.23;;
77402;SDS011;66472;53.046;8.656;2023-03-14T06:07:26;6.87;;;6.23;;
77402;SDS011;66472;53.046;8.656;2023-03-14T06:12:21;5.80;;;5.27;;
77402;SDS011;66472;53.046;8.656;2023-03-14T06:17:17;6.00;;;5.50;;
77402;SDS011;66472;53.046;8.656;2023-03-14T06:22:19;5.83;;;5.07;;
77402;SDS011;66472;53.046;8.656;2023-03-14T06:27:16;5.83;;;5.50;;
77402;SDS011;66472;53.046;8.656;2023-03-14T06:32:11;8.30;;;5.30;;
77402;SDS011;66472;53.046;8.656;2023-03-14T06:37:07;6.00;;;5.40;;
77402;SDS011;66472;53.046;8.656;2023-03-14T06:42:02;8.63;;;5.80;;
77402;SDS011;66472;53.046;8.656;2023-03-14T06:46:58;8.20;;;6.80;;
77402;SDS011;66472;53.046;8.656;2023-03-14T06:51:54;7.60;;;7.10;;
77402;SDS011;66472;53.046;8.656;2023-03-14T06:56:49;11.10;;;6.80;;
77402;SDS011;66472;53.046;8.656;2023-03-14T07:01:45;10.23;;;6.57;;
77402;SDS011;66472;53.046;8.656;2023-03-14T07:06:40;7.83;;;6.17;;
77402;SDS011;66472;53.046;8.656;2023-03-14T07:11:39;7.60;;;7.00;;
77402;SDS011;66472;53.046;8.656;2023-03-14T07:16:35;7.80;;;7.00;;
77402;SDS011;66472;53.046;8.656;2023-03-14T07:21:31;8.50;;;7.23;;
77402;SDS011;66472;53.046;8.656;2023-03-14T07:26:28;15.00;;;7.67;;
77402;SDS011;66472;53.046;8.656;2023-03-14T07:31:25;10.57;;;7.17;;
77402;SDS011;66472;53.046;8.656;2023-03-14T07:36:21;6.90;;;6.33;;
77402;SDS011;66472;53.046;8.656;2023-03-14T07:41:16;7.67;;;6.27;;
77402;SDS011;66472;53.046;8.656;2023-03-14T07:46:35;6.90;;;5.70;;
77402;SDS011;66472;53.046;8.656;2023-03-14T07:51:30;8.27;;;6.17;;
77402;SDS011;66472;53.046;8.656;2023-03-14T07:56:25;10.05;;;5.68;;
77402;SDS011;66472;53.046;8.656;2023-03-14T08:01:20;6.73;;;5.57;;
77402;SDS011;66472;53.046;8.656;2023-03-14T08:06:15;10.97;;;6.00;;
77402;SDS011;66472;53.046;8.656;2023-03-14T08:11:11;12.93;;;5.87;;
77402;SDS011;66472;53.046;8.656;2023-03-14T08:16:06;14.07;;;6.23;;
77402;SDS011;66472;53.046;8.656;2023-03-14T08:21:02;9.43;;;5.23;;
77402;SDS011;66472;53.046;8.656;2023-03-14T08:25:57;8.57;;;5.03;;
77402;SDS011;66472;53.046;8.656;2023-03-14T08:30:54;7.05;;;5.10;;
77402;SDS011;66472;53.046;8.656;2023-03-14T08:35:56;8.00;;;6.70;;
77402;SDS011;66472;53.046;8.656;2023-03-14T08:40:55;10.33;;;7.97;;
77402;SDS011;66472;53.046;8.656;2023-03-14T08:45:50;14.37;;;10.33;;
77402;SDS011;66472;53.046;8.656;2023-03-14T08:50:46;12.53;;;10.77;;
77402;SDS011;66472;53.046;8.656;2023-03-14T08:55:41;15.67;;;14.17;;
77402;SDS011;66472;53.046;8.656;2023-03-14T09:00:36;15.35;;;13.80;;
77402;SDS011;66472;53.046;8.656;2023-03-14T09:05:32;12.65;;;11.75;;
77402;SDS011;66472;53.046;8.656;2023-03-14T09:10:28;9.43;;;8.60;;
77402;SDS011;66472;53.046;8.656;2023-03-14T09:15:24;14.50;;;13.60;;
77402;SDS011;66472;53.046;8.656;2023-03-14T09:20:19;12.88;;;12.07;;
77402;SDS011;66472;53.046;8.656;2023-03-14T09:25:14;22.07;;;20.77;;
77402;SDS011;66472;53.046;8.656;2023-03-14T09:30:10;21.20;;;19.90;;
77402;SDS011;66472;53.046;8.656;2023-03-14T09:35:05;20.40;;;19.00;;
77402;SDS011;66472;53.046;8.656;2023-03-14T09:40:01;21.77;;;20.53;;
77402;SDS011;66472;53.046;8.656;2023-03-14T09:45:03;20.87;;;19.70;;
77402;SDS011;66472;53.046;8.656;2023-03-14T09:50:00;20.63;;;19.23;;
77402;SDS011;66472;53.046;8.656;2023-03-14T09:55:04;18.07;;;16.97;;
77402;SDS011;66472;53.046;8.656;2023-03-14T10:00:05;16.50;;;15.50;;
77402;SDS011;66472;53.046;8.656;2023-03-14T10:05:16;17.90;;;17.03;;
77402;SDS011;66472;53.046;8.656;2023-03-14T10:10:19;22.60;;;21.50;;
77402;SDS011;66472;53.046;8.656;2023-03-14T10:15:15;15.87;;;15.07;;
77402;SDS011;66472;53.046;8.656;2023-03-14T10:25:28;15.33;;;14.63;;
77402;SDS011;66472;53.046;8.656;2023-03-14T10:30:29;16.23;;;15.50;;
77402;SDS011;66472;53.046;8.656;2023-03-14T10:35:25;17.57;;;16.73;;
77402;SDS011;66472;53.046;8.656;2023-03-14T10:40:24;15.57;;;13.88;;
77402;SDS011;66472;53.046;8.656;2023-03-14T10:45:33;15.50;;;14.63;;
77402;SDS011;66472;53.046;8.656;2023-03-14T10:50:30;17.27;;;15.80;;
77402;SDS011;66472;53.046;8.656;2023-03-14T10:55:25;18.57;;;17.47;;
77402;SDS011;66472;53.046;8.656;2023-03-14T11:00:22;17.53;;;16.53;;
77402;SDS011;66472;53.046;8.656;2023-03-14T11:10:35;18.27;;;17.27;;
77402;SDS011;66472;53.046;8.656;2023-03-14T11:15:49;18.47;;;17.37;;
77402;SDS011;66472;53.046;8.656;2023-03-14T11:31:04;14.23;;;13.03;;
77402;SDS011;66472;53.046;8.656;2023-03-14T11:36:06;14.20;;;13.20;;
77402;SDS011;66472;53.046;8.656;2023-03-14T11:41:01;16.33;;;15.07;;
77402;SDS011;66472;53.046;8.656;2023-03-14T11:46:59;12.20;;;11.30;;
77402;SDS011;66472;53.046;8.656;2023-03-14T11:51:23;14.80;;;13.70;;
77402;SDS011;66472;53.046;8.656;2023-03-14T11:56:22;11.27;;;10.47;;
77402;SDS011;66472;53.046;8.656;2023-03-14T12:01:18;12.27;;;11.23;;
77402;SDS011;66472;53.046;8.656;2023-03-14T12:06:19;13.63;;;10.67;;
77402;SDS011;66472;53.046;8.656;2023-03-14T12:11:30;10.77;;;9.63;;
77402;SDS011;66472;53.046;8.656;2023-03-14T12:16:37;15.17;;;8.27;;
77402;SDS011;66472;53.046;8.656;2023-03-14T12:21:52;15.87;;;8.70;;
77402;SDS011;66472;53.046;8.656;2023-03-14T12:26:58;17.63;;;7.90;;
77402;SDS011;66472;53.046;8.656;2023-03-14T12:37:12;13.60;;;5.83;;
77402;SDS011;66472;53.046;8.656;2023-03-14T12:52:15;13.80;;;4.90;;
77402;SDS011;66472;53.046;8.656;2023-03-14T13:02:20;13.40;;;4.50;;
77402;SDS011;66472;53.046;8.656;2023-03-14T13:07:31;10.27;;;4.53;;
77402;SDS011;66472;53.046;8.656;2023-03-14T13:12:27;7.27;;;4.10;;
77402;SDS011;66472;53.046;8.656;2023-03-14T13:17:32;9.53;;;4.33;;
77402;SDS011;66472;53.046;8.656;2023-03-14T13:22:29;5.17;;;3.80;;
77402;SDS011;66472;53.046;8.656;2023-03-14T13:27:25;13.43;;;5.10;;
77402;SDS011;66472;53.046;8.656;2023-03-14T13:32:21;10.25;;;4.55;;
77402;SDS011;66472;53.046;8.656;2023-03-14T13:37:22;8.87;;;5.37;;
77402;SDS011;66472;53.046;8.656;2023-03-14T13:42:17;8.83;;;4.00;;
77402;SDS011;66472;53.046;8.656;2023-03-14T13:47:17;5.07;;;4.33;;
77402;SDS011;66472;53.046;8.656;2023-03-14T13:57:17;7.23;;;4.87;;
77402;SDS011;66472;53.046;8.656;2023-03-14T14:02:13;8.07;;;4.30;;
77402;SDS011;66472;53.046;8.656;2023-03-14T14:07:10;7.23;;;4.13;;
77402;SDS011;66472;53.046;8.656;2023-03-14T14:12:10;7.10;;;3.80;;
77402;SDS011;66472;53.046;8.656;2023-03-14T14:17:12;9.83;;;4.17;;
77402;SDS011;66472;53.046;8.656;2023-03-14T14:22:08;8.43;;;3.43;;
77402;SDS011;66472;53.046;8.656;2023-03-14T14:37:01;8.53;;;3.63;;
77402;SDS011;66472;53.046;8.656;2023-03-14T14:41:56;5.57;;;4.05;;
77402;SDS011;66472;53.046;8.656;2023-03-14T14:46:52;9.63;;;4.63;;
77402;SDS011;66472;53.046;8.656;2023-03-14T14:51:48;6.47;;;4.27;;
77402;SDS011;66472;53.046;8.656;2023-03-14T14:56:48;9.33;;;4.13;;
77402;SDS011;66472;53.046;8.656;2023-03-14T15:01:44;13.83;;;4.50;;
77402;SDS011;66472;53.046;8.656;2023-03-14T15:06:39;10.47;;;3.90;;
77402;SDS011;66472;53.046;8.656;2023-03-14T15:11:37;5.57;;;3.10;;
77402;SDS011;66472;53.046;8.656;2023-03-14T15:16:32;6.07;;;2.93;;
77402;SDS011;66472;53.046;8.656;2023-03-14T15:21:28;10.07;;;3.77;;
77402;SDS011;66472;53.046;8.656;2023-03-14T15:26:25;5.90;;;3.40;;
77402;SDS011;66472;53.046;8.656;2023-03-14T15:31:20;7.27;;;3.93;;
77402;SDS011;66472;53.046;8.656;2023-03-14T15:36:26;8.97;;;3.87;;
77402;SDS011;66472;53.046;8.656;2023-03-14T15:41:22;10.33;;;3.67;;
77402;SDS011;66472;53.046;8.656;2023-03-14T15:46:18;8.93;;;3.80;;
77402;SDS011;66472;53.046;8.656;2023-03-14T15:51:13;9.80;;;3.57;;
77402;SDS011;66472;53.046;8.656;2023-03-14T15:56:11;6.23;;;3.30;;
77402;SDS011;66472;53.046;8.656;2023-03-14T16:01:07;10.63;;;4.23;;
77402;SDS011;66472;53.046;8.656;2023-03-14T16:06:06;6.97;;;4.00;;
77402;SDS011;66472;53.046;8.656;2023-03-14T16:11:01;6.27;;;3.93;;
77402;SDS011;66472;53.046;8.656;2023-03-14T16:15:57;10.90;;;3.80;;
77402;SDS011;66472;53.046;8.656;2023-03-14T16:20:57;7.13;;;4.03;;
77402;SDS011;66472;53.046;8.656;2023-03-14T16:25:52;10.23;;;3.63;;
77402;SDS011;66472;53.046;8.656;2023-03-14T16:30:48;9.13;;;4.53;;
77402;SDS011;66472;53.046;8.656;2023-03-14T16:35:53;5.43;;;3.80;;
77402;SDS011;66472;53.046;8.656;2023-03-14T16:40:59;9.77;;;4.37;;
77402;SDS011;66472;53.046;8.656;2023-03-14T16:45:58;8.57;;;4.20;;
77402;SDS011;66472;53.046;8.656;2023-03-14T16:50:54;8.77;;;4.13;;
77402;SDS011;66472;53.046;8.656;2023-03-14T16:55:49;10.80;;;4.30;;
77402;SDS011;66472;53.046;8.656;2023-03-14T17:00:45;7.30;;;3.77;;
77402;SDS011;66472;53.046;8.656;2023-03-14T17:05:45;10.40;;;4.10;;
77402;SDS011;66472;53.046;8.656;2023-03-14T17:10:41;5.93;;;4.80;;
77402;SDS011;66472;53.046;8.656;2023-03-14T17:15:36;8.30;;;3.97;;
77402;SDS011;66472;53.046;8.656;2023-03-14T17:20:32;12.37;;;4.80;;
77402;SDS011;66472;53.046;8.656;2023-03-14T17:25:27;7.60;;;4.33;;
77402;SDS011;66472;53.046;8.656;2023-03-14T17:30:22;17.13;;;4.93;;
77402;SDS011;66472;53.046;8.656;2023-03-14T17:35:17;6.57;;;4.32;;
77402;SDS011;66472;53.046;8.656;2023-03-14T17:40:13;9.23;;;5.03;;
77402;SDS011;66472;53.046;8.656;2023-03-14T17:45:08;4.70;;;4.30;;
77402;SDS011;66472;53.046;8.656;2023-03-14T17:50:04;5.33;;;4.80;;
77402;SDS011;66472;53.046;8.656;2023-03-14T17:54:59;9.70;;;4.93;;
77402;SDS011;66472;53.046;8.656;2023-03-14T17:59:55;9.13;;;4.43;;
77402;SDS011;66472;53.046;8.656;2023-03-14T18:04:51;8.53;;;5.70;;
77402;SDS011;66472;53.046;8.656;2023-03-14T18:09:46;6.93;;;4.07;;
77402;SDS011;66472;53.046;8.656;2023-03-14T18:14:41;9.57;;;4.70;;
77402;SDS011;66472;53.046;8.656;2023-03-14T18:19:40;4.90;;;3.83;;
77402;SDS011;66472;53.046;8.656;2023-03-14T18:24:35;7.33;;;4.27;;
77402;SDS011;66472;53.046;8.656;2023-03-14T18:29:30;5.73;;;4.80;;
77402;SDS011;66472;53.046;8.656;2023-03-14T18:34:26;4.82;;;4.43;;
77402;SDS011;66472;53.046;8.656;2023-03-14T18:39:21;4.78;;;4.20;;
77402;SDS011;66472;53.046;8.656;2023-03-14T18:44:16;5.13;;;4.63;;
77402;SDS011;66472;53.046;8.656;2023-03-14T18:49:12;10.40;;;4.63;;
77402;SDS011;66472;53.046;8.656;2023-03-14T18:54:08;4.40;;;4.07;;
77402;SDS011;66472;53.046;8.656;2023-03-14T18:59:03;7.17;;;4.20;;
77402;SDS011;66472;53.046;8.656;2023-03-14T19:03:59;8.33;;;4.37;;
77402;SDS011;66472;53.046;8.656;2023-03-14T19:08:54;5.23;;;4.30;;
77402;SDS011;66472;53.046;8.656;2023-03-14T19:13:50;9.65;;;5.22;;
77402;SDS011;66472;53.046;8.656;2023-03-14T19:18:46;7.63;;;4.60;;
77402;SDS011;66472;53.046;8.656;2023-03-14T19:23:42;10.83;;;5.33;;
77402;SDS011;66472;53.046;8.656;2023-03-14T19:28:38;6.40;;;4.30;;
77402;SDS011;66472;53.046;8.656;2023-03-14T19:33:33;6.37;;;5.00;;
77402;SDS011;66472;53.046;8.656;2023-03-14T19:38:28;6.20;;;5.07;;
77402;SDS011;66472;53.046;8.656;2023-03-14T19:43:24;11.07;;;5.03;;
77402;SDS011;66472;53.046;8.656;2023-03-14T19:48:19;8.40;;;5.37;;
77402;SDS011;66472;53.046;8.656;2023-03-14T19:53:15;10.83;;;6.83;;
77402;SDS011;66472;53.046;8.656;2023-03-14T19:58:10;8.35;;;5.05;;
77402;SDS011;66472;53.046;8.656;2023-03-14T20:03:05;8.15;;;5.70;;
77402;SDS011;66472;53.046;8.656;2023-03-14T20:08:00;6.55;;;5.03;;
77402;SDS011;66472;53.046;8.656;2023-03-14T20:12:56;10.55;;;6.28;;
77402;SDS011;66472;53.046;8.656;2023-03-14T20:17:53;9.50;;;5.20;;
77402;SDS011;66472;53.046;8.656;2023-03-14T20:22:48;13.80;;;6.30;;
77402;SDS011;66472;53.046;8.656;2023-03-14T20:27:47;19.93;;;6.70;;
77402;SDS011;66472;53.046;8.656;2023-03-14T20:32:43;10.17;;;5.53;;
77402;SDS011;66472;53.046;8.656;2023-03-14T20:37:38;7.77;;;6.20;;
77402;SDS011;66472;53.046;8.656;2023-03-14T20:42:35;9.17;;;5.67;;
77402;SDS011;66472;53.046;8.656;2023-03-14T20:47:32;6.50;;;6.00;;
77402;SDS011;66472;53.046;8.656;2023-03-14T20:52:27;9.80;;;5.80;;
77402;SDS011;66472;53.046;8.656;2023-03-14T20:57:22;10.27;;;5.28;;
77402;SDS011;66472;53.046;8.656;2023-03-14T21:02:18;6.87;;;4.87;;
77402;SDS011;66472;53.046;8.656;2023-03-14T21:07:13;9.32;;;6.10;;
77402;SDS011;66472;53.046;8.656;2023-03-14T21:12:08;8.65;;;5.70;;
77402;SDS011;66472;53.046;8.656;2023-03-14T21:17:03;11.80;;;5.80;;
77402;SDS011;66472;53.046;8.656;2023-03-14T21:21:59;5.43;;;4.93;;
77402;SDS011;66472;53.046;8.656;2023-03-14T21:26:55;7.57;;;5.57;;
77402;SDS011;66472;53.046;8.656;2023-03-14T21:31:50;9.30;;;6.33;;
77402;SDS011;66472;53.046;8.656;2023-03-14T21:36:45;7.67;;;5.67;;
77402;SDS011;66472;53.046;8.656;2023-03-14T21:41:40;14.37;;;5.23;;
77402;SDS011;66472;53.046;8.656;2023-03-14T21:46:36;10.23;;;5.53;;
77402;SDS011;66472;53.046;8.656;2023-03-14T21:51:31;9.00;;;6.30;;
77402;SDS011;66472;53.046;8.656;2023-03-14T21:56:29;6.53;;;5.90;;
77402;SDS011;66472;53.046;8.656;2023-03-14T22:01:24;8.07;;;5.97;;
77402;SDS011;66472;53.046;8.656;2023-03-14T22:06:20;12.77;;;5.80;;
77402;SDS011;66472;53.046;8.656;2023-03-14T22:11:15;11.33;;;6.37;;
77402;SDS011;66472;53.046;8.656;2023-03-14T22:16:10;7.25;;;5.55;;
77402;SDS011;66472;53.046;8.656;2023-03-14T22:21:05;7.97;;;5.57;;
77402;SDS011;66472;53.046;8.656;2023-03-14T22:26:01;6.85;;;6.25;;
77402;SDS011;66472;53.046;8.656;2023-03-14T22:30:56;6.97;;;6.03;;
77402;SDS011;66472;53.046;8.656;2023-03-14T22:35:52;6.55;;;5.80;;
77402;SDS011;66472;53.046;8.656;2023-03-14T22:40:47;13.30;;;5.90;;
77402;SDS011;66472;53.046;8.656;2023-03-14T22:45:42;12.15;;;6.88;;
77402;SDS011;66472;53.046;8.656;2023-03-14T22:50:38;10.77;;;5.80;;
77402;SDS011;66472;53.046;8.656;2023-03-14T22:55:33;6.50;;;4.97;;
77402;SDS011;66472;53.046;8.656;2023-03-14T23:00:29;18.27;;;5.50;;
77402;SDS011;66472;53.046;8.656;2023-03-14T23:05:25;5.90;;;5.23;;
77402;SDS011;66472;53.046;8.656;2023-03-14T23:10:21;12.20;;;6.30;;
77402;SDS011;66472;53.046;8.656;2023-03-14T23:15:16;7.20;;;5.13;;
77402;SDS011;66472;53.046;8.656;2023-03-14T23:20:11;9.75;;;6.95;;
77402;SDS011;66472;53.046;8.656;2023-03-14T23:25:07;14.80;;;5.53;;
77402;SDS011;66472;53.046;8.656;2023-03-14T23:30:03;6.37;;;5.80;;
77402;SDS011;66472;53.046;8.656;2023-03-14T23:34:59;14.10;;;5.97;;
77402;SDS011;66472;53.046;8.656;2023-03-14T23:39:54;7.53;;;5.20;;
77402;SDS011;66472;53.046;8.656;2023-03-14T23:44:49;7.47;;;4.88;;
77402;SDS011;66472;53.046;8.656;2023-03-14T23:49:44;6.10;;;5.53;;
77402;SDS011;66472;53.046;8.656;2023-03-14T23:54:40;5.63;;;4.60;;
77402;SDS011;66472;53.046;8.656;2023-03-14T23:59:35;5.37;;;4.90;;
